This is the latest recevied weather packets stored in our database for station/object K7GFH-13. If no packets are shown the sender has not sent any weather packets the latest 10 day(s).
| Time | Temp. | Humidity | Pressure | Rain* | Wind** | Luminosity | Snow |
|---|---|---|---|---|---|---|---|
| 1777681018 | 22.78° C | 51% | 1016.2 hPa | 0 mm | - | 255 W/m² | - |
| 1777680116 | 22.22° C | 55% | 1015.9 hPa | 0 mm | - | 325 W/m² | - |
| 1777679215 | 22.22° C | 52% | 1015.9 hPa | 0 mm | - | 350 W/m² | - |
| 1777678313 | 22.22° C | 55% | 1016 hPa | 0 mm | - | 346 W/m² | - |
| 1777677411 | 21.67° C | 56% | 1016.4 hPa | 0 mm | - | 352 W/m² | - |
| 1777676511 | 22.22° C | 54% | 1016.5 hPa | 0 mm | - | 401 W/m² | - |
| 1777675607 | 22.78° C | 50% | 1016.7 hPa | 0 mm | - | 394 W/m² | - |
| 1777674703 | 21.11° C | 57% | 1016.7 hPa | 0 mm | - | 468 W/m² | - |
| 1777673798 | 21.11° C | 55% | 1017 hPa | 0 mm | - | 572 W/m² | - |
| 1777672896 | 21.11° C | 54% | 1017.3 hPa | 0 mm | - | 509 W/m² | - |
| 1777671994 | 20.56° C | 56% | 1017.6 hPa | 0 mm | - | 560 W/m² | - |
| 1777671089 | 20.56° C | 57% | 1017.5 hPa | 0 mm | - | 534 W/m² | - |
| 1777670185 | 20.56° C | 58% | 1017.8 hPa | 0 mm | - | 480 W/m² | - |
| 1777669282 | 20° C | 58% | 1017.8 hPa | 0 mm | - | 588 W/m² | - |
| 1777668379 | 21.11° C | 58% | 1017.9 hPa | 0 mm | - | 518 W/m² | - |
| 1777667475 | 19.44° C | 60% | 1018 hPa | 0 mm | - | 738 W/m² | - |
| 1777666572 | 20° C | 57% | 1018 hPa | 0 mm | - | 700 W/m² | - |
| 1777665669 | 19.44° C | 60% | 1018.1 hPa | 0 mm | - | 629 W/m² | - |
| 1777664769 | 18.89° C | 61% | 1018.2 hPa | 0 mm | - | 647 W/m² | - |
| 1777663866 | 18.33° C | 64% | 1018.2 hPa | 0 mm | - | 625 W/m² | - |
| 1777662963 | 18.33° C | 61% | 1018.6 hPa | 0 mm | - | 590 W/m² | - |
| 1777662063 | 17.78° C | 66% | 1018.4 hPa | 0 mm | - | 657 W/m² | - |
| 1777661163 | 18.33° C | 64% | 1018.7 hPa | 0 mm | - | 616 W/m² | - |
| 1777660263 | 16.67° C | 67% | 1018.6 hPa | 0 mm | - | 615 W/m² | - |
| 1777659359 | 16.11° C | 68% | 1018.8 hPa | 0 mm | - | 561 W/m² | - |
* Rain latest hour (hover to see other rain measurements)
** Current wind speed in m/s (hover to see current wind gust speed)